sensor_id;sensor_type;location;lat;lon;timestamp;pressure;altitude;pressure_sealevel;temperature;humidity
85256;BME280;75660;52.380;4.876;2024-01-15T00:00:42;100346.63;;;14.83;38.67
85256;BME280;75660;52.380;4.876;2024-01-15T00:03:32;100346.25;;;14.79;38.59
85256;BME280;75660;52.380;4.876;2024-01-15T00:06:25;100347.47;;;14.84;38.47
85256;BME280;75660;52.380;4.876;2024-01-15T00:09:31;100343.06;;;14.82;38.03
85256;BME280;75660;52.380;4.876;2024-01-15T00:22:32;100329.00;;;14.79;38.15
85256;BME280;75660;52.380;4.876;2024-01-15T00:28:23;100331.06;;;14.84;38.19
85256;BME280;75660;52.380;4.876;2024-01-15T00:31:45;100325.41;;;14.78;38.07
85256;BME280;75660;52.380;4.876;2024-01-15T00:37:59;100334.69;;;14.77;38.33
85256;BME280;75660;52.380;4.876;2024-01-15T00:41:24;100325.41;;;14.78;38.18
85256;BME280;75660;52.380;4.876;2024-01-15T00:50:20;100294.50;;;14.78;38.24
85256;BME280;75660;52.380;4.876;2024-01-15T00:53:13;100295.34;;;14.78;38.05
85256;BME280;75660;52.380;4.876;2024-01-15T00:56:00;100297.84;;;14.80;37.89
85256;BME280;75660;52.380;4.876;2024-01-15T01:02:04;100283.38;;;14.73;38.02
85256;BME280;75660;52.380;4.876;2024-01-15T01:04:56;100288.22;;;14.71;38.16
85256;BME280;75660;52.380;4.876;2024-01-15T01:14:43;100269.81;;;14.60;38.19
85256;BME280;75660;52.380;4.876;2024-01-15T01:20:59;100282.84;;;14.58;38.67
85256;BME280;75660;52.380;4.876;2024-01-15T01:23:52;100287.13;;;14.54;38.84
85256;BME280;75660;52.380;4.876;2024-01-15T01:26:34;100289.84;;;14.54;38.38
85256;BME280;75660;52.380;4.876;2024-01-15T01:29:44;100296.97;;;14.55;37.76
85256;BME280;75660;52.380;4.876;2024-01-15T01:32:27;100309.81;;;14.54;38.63
85256;BME280;75660;52.380;4.876;2024-01-15T01:35:19;100310.63;;;14.55;38.91
85256;BME280;75660;52.380;4.876;2024-01-15T01:38:19;100308.31;;;14.58;38.50
85256;BME280;75660;52.380;4.876;2024-01-15T01:41:19;100294.00;;;14.56;39.25
85256;BME280;75660;52.380;4.876;2024-01-15T01:44:20;100288.53;;;14.56;38.77
85256;BME280;75660;52.380;4.876;2024-01-15T01:47:17;100284.97;;;14.56;39.19
85256;BME280;75660;52.380;4.876;2024-01-15T01:50:02;100277.63;;;14.56;38.73
85256;BME280;75660;52.380;4.876;2024-01-15T01:53:03;100277.63;;;14.56;38.74
85256;BME280;75660;52.380;4.876;2024-01-15T01:55:47;100278.22;;;14.58;39.56
85256;BME280;75660;52.380;4.876;2024-01-15T01:58:41;100277.19;;;14.59;39.48
85256;BME280;75660;52.380;4.876;2024-01-15T02:08:04;100267.16;;;14.53;38.67
85256;BME280;75660;52.380;4.876;2024-01-15T02:10:39;100265.47;;;14.52;39.02
85256;BME280;75660;52.380;4.876;2024-01-15T02:13:25;100270.75;;;14.47;38.84
85256;BME280;75660;52.380;4.876;2024-01-15T02:16:10;100270.34;;;14.43;39.00
85256;BME280;75660;52.380;4.876;2024-01-15T02:22:28;100266.59;;;14.38;39.00
85256;BME280;75660;52.380;4.876;2024-01-15T02:25:46;100272.06;;;14.38;39.26
85256;BME280;75660;52.380;4.876;2024-01-15T02:28:32;100269.31;;;14.38;39.06
85256;BME280;75660;52.380;4.876;2024-01-15T02:31:18;100267.88;;;14.35;39.32
85256;BME280;75660;52.380;4.876;2024-01-15T02:34:24;100267.88;;;14.35;38.99
85256;BME280;75660;52.380;4.876;2024-01-15T02:37:15;100267.88;;;14.35;38.89
85256;BME280;75660;52.380;4.876;2024-01-15T02:40:20;100261.56;;;14.35;38.67
85256;BME280;75660;52.380;4.876;2024-01-15T02:43:02;100267.25;;;14.33;39.23
85256;BME280;75660;52.380;4.876;2024-01-15T02:46:12;100267.25;;;14.33;39.02
85256;BME280;75660;52.380;4.876;2024-01-15T02:48:43;100268.50;;;14.31;39.79
85256;BME280;75660;52.380;4.876;2024-01-15T02:54:44;100283.03;;;14.31;39.36
85256;BME280;75660;52.380;4.876;2024-01-15T02:57:31;100289.09;;;14.33;39.88
85256;BME280;75660;52.380;4.876;2024-01-15T03:00:07;100279.63;;;14.36;39.55
85256;BME280;75660;52.380;4.876;2024-01-15T03:02:51;100279.19;;;14.39;39.35
85256;BME280;75660;52.380;4.876;2024-01-15T03:05:30;100271.22;;;14.37;39.29
85256;BME280;75660;52.380;4.876;2024-01-15T03:08:14;100268.06;;;14.40;39.54
85256;BME280;75660;52.380;4.876;2024-01-15T03:10:53;100263.03;;;14.37;39.10
85256;BME280;75660;52.380;4.876;2024-01-15T03:17:01;100263.66;;;14.33;39.23
85256;BME280;75660;52.380;4.876;2024-01-15T03:19:57;100255.47;;;14.33;39.66
85256;BME280;75660;52.380;4.876;2024-01-15T03:23:19;100246.22;;;14.34;40.27
85256;BME280;75660;52.380;4.876;2024-01-15T03:26:11;100247.91;;;14.35;39.31
85256;BME280;75660;52.380;4.876;2024-01-15T03:31:53;100235.31;;;14.27;39.02
85256;BME280;75660;52.380;4.876;2024-01-15T03:37:44;100227.81;;;14.23;39.31
85256;BME280;75660;52.380;4.876;2024-01-15T03:40:32;100226.13;;;14.22;38.29
85256;BME280;75660;52.380;4.876;2024-01-15T03:46:02;100224.03;;;14.24;38.92
85256;BME280;75660;52.380;4.876;2024-01-15T03:49:05;100222.34;;;14.23;39.23
85256;BME280;75660;52.380;4.876;2024-01-15T03:51:42;100219.00;;;14.21;38.51
85256;BME280;75660;52.380;4.876;2024-01-15T03:54:30;100221.09;;;14.19;38.71
85256;BME280;75660;52.380;4.876;2024-01-15T03:57:12;100211.00;;;14.19;39.36
85256;BME280;75660;52.380;4.876;2024-01-15T04:02:53;100216.69;;;14.18;39.38
85256;BME280;75660;52.380;4.876;2024-01-15T04:08:56;100223.41;;;14.22;40.00
85256;BME280;75660;52.380;4.876;2024-01-15T04:12:03;100220.44;;;14.23;39.24
85256;BME280;75660;52.380;4.876;2024-01-15T04:14:45;100225.66;;;14.25;39.52
85256;BME280;75660;52.380;4.876;2024-01-15T04:17:38;100225.22;;;14.28;39.37
85256;BME280;75660;52.380;4.876;2024-01-15T04:20:37;100224.03;;;14.24;39.55
85256;BME280;75660;52.380;4.876;2024-01-15T04:23:57;100205.47;;;14.26;39.26
85256;BME280;75660;52.380;4.876;2024-01-15T04:26:36;100199.44;;;14.24;39.31
85256;BME280;75660;52.380;4.876;2024-01-15T04:29:48;100208.47;;;14.24;38.95
85256;BME280;75660;52.380;4.876;2024-01-15T04:32:32;100208.06;;;14.21;38.87
85256;BME280;75660;52.380;4.876;2024-01-15T04:35:16;100189.16;;;14.19;39.25
85256;BME280;75660;52.380;4.876;2024-01-15T04:38:09;100193.78;;;14.19;38.97
85256;BME280;75660;52.380;4.876;2024-01-15T04:41:16;100198.19;;;14.20;39.38
85256;BME280;75660;52.380;4.876;2024-01-15T04:43:55;100200.50;;;14.23;39.37
85256;BME280;75660;52.380;4.876;2024-01-15T04:46:36;100203.00;;;14.24;38.97
85256;BME280;75660;52.380;4.876;2024-01-15T04:49:45;100197.75;;;14.23;39.29
85256;BME280;75660;52.380;4.876;2024-01-15T04:53:06;100197.28;;;14.26;39.31
85256;BME280;75660;52.380;4.876;2024-01-15T04:55:50;100202.75;;;14.26;39.32
85256;BME280;75660;52.380;4.876;2024-01-15T05:02:20;100164.97;;;14.23;39.45
85256;BME280;75660;52.380;4.876;2024-01-15T05:05:05;100167.69;;;14.23;38.78
85256;BME280;75660;52.380;4.876;2024-01-15T05:07:50;100171.94;;;14.19;38.95
85256;BME280;75660;52.380;4.876;2024-01-15T05:10:33;100170.47;;;14.16;39.27
85256;BME280;75660;52.380;4.876;2024-01-15T05:13:15;100170.28;;;14.11;39.47
85256;BME280;75660;52.380;4.876;2024-01-15T05:16:33;100192.59;;;14.08;40.29
85256;BME280;75660;52.380;4.876;2024-01-15T05:19:13;100214.00;;;14.11;40.09
85256;BME280;75660;52.380;4.876;2024-01-15T05:21:51;100199.06;;;14.13;39.05
85256;BME280;75660;52.380;4.876;2024-01-15T05:24:51;100198.84;;;14.15;39.95
85256;BME280;75660;52.380;4.876;2024-01-15T05:27:35;100182.84;;;14.19;39.17
85256;BME280;75660;52.380;4.876;2024-01-15T05:30:40;100189.59;;;14.16;39.30
85256;BME280;75660;52.380;4.876;2024-01-15T05:33:32;100180.78;;;14.14;39.42
85256;BME280;75660;52.380;4.876;2024-01-15T05:36:05;100180.38;;;14.10;39.54
85256;BME280;75660;52.380;4.876;2024-01-15T05:38:39;100174.53;;;14.07;39.38
85256;BME280;75660;52.380;4.876;2024-01-15T05:41:09;100175.75;;;14.11;39.91
85256;BME280;75660;52.380;4.876;2024-01-15T05:43:39;100165.63;;;14.18;39.61
85256;BME280;75660;52.380;4.876;2024-01-15T05:46:31;100167.69;;;14.23;39.37
85256;BME280;75660;52.380;4.876;2024-01-15T05:49:04;100159.44;;;14.29;39.60
85256;BME280;75660;52.380;4.876;2024-01-15T05:51:42;100165.56;;;14.25;39.63
85256;BME280;75660;52.380;4.876;2024-01-15T05:54:20;100166.34;;;14.32;39.80
85256;BME280;75660;52.380;4.876;2024-01-15T05:56:54;100159.44;;;14.29;39.53
85256;BME280;75660;52.380;4.876;2024-01-15T05:59:26;100155.88;;;14.29;39.17
85256;BME280;75660;52.380;4.876;2024-01-15T06:01:58;100163.84;;;14.30;38.40
85256;BME280;75660;52.380;4.876;2024-01-15T06:04:39;100162.16;;;14.29;39.13
85256;BME280;75660;52.380;4.876;2024-01-15T06:07:15;100157.00;;;14.21;39.87
85256;BME280;75660;52.380;4.876;2024-01-15T06:09:49;100153.75;;;14.31;39.49
85256;BME280;75660;52.380;4.876;2024-01-15T06:12:27;100158.91;;;14.45;39.59
85256;BME280;75660;52.380;4.876;2024-01-15T06:18:13;100163.81;;;14.62;39.28
85256;BME280;75660;52.380;4.876;2024-01-15T06:20:40;100153.06;;;14.67;38.65
85256;BME280;75660;52.380;4.876;2024-01-15T06:23:09;100175.91;;;14.72;38.90
85256;BME280;75660;52.380;4.876;2024-01-15T06:25:37;100184.09;;;14.72;38.29
85256;BME280;75660;52.380;4.876;2024-01-15T06:34:55;100180.88;;;14.57;37.19
85256;BME280;75660;52.380;4.876;2024-01-15T06:37:27;100177.69;;;14.60;38.03
85256;BME280;75660;52.380;4.876;2024-01-15T06:39:59;100186.75;;;14.61;37.83
85256;BME280;75660;52.380;4.876;2024-01-15T06:42:38;100182.94;;;14.62;37.80
85256;BME280;75660;52.380;4.876;2024-01-15T06:45:11;100160.25;;;14.61;37.87
85256;BME280;75660;52.380;4.876;2024-01-15T06:47:53;100160.25;;;14.61;37.69
85256;BME280;75660;52.380;4.876;2024-01-15T06:50:22;100147.63;;;14.60;37.73
85256;BME280;75660;52.380;4.876;2024-01-15T06:52:53;100151.88;;;14.56;38.28
85256;BME280;75660;52.380;4.876;2024-01-15T06:55:22;100148.56;;;14.54;38.27
85256;BME280;75660;52.380;4.876;2024-01-15T06:57:54;100158.25;;;14.50;37.84
85256;BME280;75660;52.380;4.876;2024-01-15T07:00:20;100152.38;;;14.46;37.71
85256;BME280;75660;52.380;4.876;2024-01-15T07:02:48;100152.00;;;14.43;37.80
85256;BME280;75660;52.380;4.876;2024-01-15T07:05:16;100173.25;;;14.41;37.57
85256;BME280;75660;52.380;4.876;2024-01-15T07:10:36;100170.53;;;14.34;38.34
85256;BME280;75660;52.380;4.876;2024-01-15T07:13:14;100164.91;;;14.29;37.51
85256;BME280;75660;52.380;4.876;2024-01-15T07:15:43;100159.28;;;14.24;37.66
85256;BME280;75660;52.380;4.876;2024-01-15T07:18:19;100152.16;;;14.23;37.11
85256;BME280;75660;52.380;4.876;2024-01-15T07:20:47;100142.06;;;14.24;37.49
85256;BME280;75660;52.380;4.876;2024-01-15T07:26:09;100141.25;;;14.17;37.68
85256;BME280;75660;52.380;4.876;2024-01-15T07:28:41;100146.50;;;14.18;36.82
85256;BME280;75660;52.380;4.876;2024-01-15T07:31:30;100147.16;;;14.13;38.22
85256;BME280;75660;52.380;4.876;2024-01-15T07:34:00;100135.25;;;14.08;38.46
85256;BME280;75660;52.380;4.876;2024-01-15T07:36:47;100126.25;;;14.01;38.02
85256;BME280;75660;52.380;4.876;2024-01-15T07:39:19;100127.53;;;13.98;37.94
85256;BME280;75660;52.380;4.876;2024-01-15T07:41:52;100143.28;;;13.96;38.21
85256;BME280;75660;52.380;4.876;2024-01-15T07:44:23;100159.31;;;13.93;38.01
85256;BME280;75660;52.380;4.876;2024-01-15T07:48:00;100187.66;;;13.92;37.90
85256;BME280;75660;52.380;4.876;2024-01-15T07:54:06;100198.09;;;14.01;38.27
85256;BME280;75660;52.380;4.876;2024-01-15T07:56:34;100181.28;;;14.04;39.11
85256;BME280;75660;52.380;4.876;2024-01-15T07:59:08;100168.59;;;14.10;37.94
85256;BME280;75660;52.380;4.876;2024-01-15T08:01:34;100177.00;;;14.15;37.56
85256;BME280;75660;52.380;4.876;2024-01-15T08:04:19;100176.56;;;14.18;38.00
85256;BME280;75660;52.380;4.876;2024-01-15T08:06:46;100170.66;;;14.21;38.31
85256;BME280;75660;52.380;4.876;2024-01-15T08:09:18;100161.63;;;14.21;38.11
85256;BME280;75660;52.380;4.876;2024-01-15T08:14:37;100157.22;;;14.20;37.60
85256;BME280;75660;52.380;4.876;2024-01-15T08:17:51;100159.31;;;14.18;38.29
85256;BME280;75660;52.380;4.876;2024-01-15T08:23:41;100157.66;;;14.17;38.67
85256;BME280;75660;52.380;4.876;2024-01-15T08:40:06;100211.44;;;1.45;84.61
85256;BME280;75660;52.380;4.876;2024-01-15T08:42:33;100197.50;;;1.51;82.72
85256;BME280;75660;52.380;4.876;2024-01-15T08:45:01;100200.59;;;1.56;83.15
85256;BME280;75660;52.380;4.876;2024-01-15T08:47:29;100213.28;;;1.45;84.02
85256;BME280;75660;52.380;4.876;2024-01-15T08:49:57;100198.06;;;1.55;84.36
85256;BME280;75660;52.380;4.876;2024-01-15T08:52:25;100208.09;;;1.72;81.04
85256;BME280;75660;52.380;4.876;2024-01-15T08:54:57;100190.50;;;4.68;68.59
85256;BME280;75660;52.380;4.876;2024-01-15T08:57:24;100202.94;;;3.10;72.65
85256;BME280;75756;52.380;4.876;2024-01-15T08:59:50;100203.84;;;2.64;75.63
85256;BME280;75756;52.380;4.876;2024-01-15T09:02:19;100211.09;;;2.44;75.64
85256;BME280;75756;52.380;4.876;2024-01-15T09:05:11;100217.50;;;2.71;73.88
85256;BME280;75756;52.380;4.876;2024-01-15T09:12:37;100216.56;;;2.90;72.85
85256;BME280;75756;52.380;4.876;2024-01-15T09:15:05;100208.75;;;2.69;73.85
85256;BME280;75756;52.380;4.876;2024-01-15T09:18:03;100213.19;;;3.15;72.63
85256;BME280;75756;52.380;4.876;2024-01-15T09:21:03;100208.31;;;3.01;72.80
85256;BME280;75756;52.380;4.876;2024-01-15T09:23:32;100218.69;;;3.23;71.23
85256;BME280;75756;52.380;4.876;2024-01-15T09:25:58;100235.50;;;3.43;71.36
85256;BME280;75756;52.380;4.876;2024-01-15T09:28:24;100221.31;;;3.05;74.10
85256;BME280;75756;52.380;4.876;2024-01-15T09:30:53;100226.03;;;2.94;74.46
85256;BME280;75756;52.380;4.876;2024-01-15T09:33:19;100208.53;;;3.17;74.15
85256;BME280;75756;52.380;4.876;2024-01-15T09:35:45;100205.25;;;2.96;75.29
85256;BME280;75756;52.380;4.876;2024-01-15T09:38:24;100212.06;;;2.90;75.90
85256;BME280;75756;52.380;4.876;2024-01-15T09:40:53;100214.47;;;2.83;76.45
85256;BME280;75756;52.380;4.876;2024-01-15T09:43:19;100216.53;;;2.62;77.81
85256;BME280;75756;52.380;4.876;2024-01-15T09:45:53;100240.72;;;2.43;80.30
85256;BME280;75756;52.380;4.876;2024-01-15T09:48:23;100220.72;;;2.28;81.18
85256;BME280;75756;52.380;4.876;2024-01-15T09:51:03;100210.41;;;2.33;80.51
85256;BME280;75756;52.380;4.876;2024-01-15T09:53:40;100217.00;;;2.48;79.19
85256;BME280;75756;52.380;4.876;2024-01-15T09:56:10;100221.16;;;2.70;78.64
85256;BME280;75756;52.380;4.876;2024-01-15T09:58:51;100225.38;;;2.72;77.70
85256;BME280;75756;52.380;4.876;2024-01-15T10:01:35;100224.84;;;2.69;76.99
85256;BME280;75756;52.380;4.876;2024-01-15T10:04:12;100239.97;;;2.97;76.04
85256;BME280;75756;52.380;4.876;2024-01-15T10:06:46;100230.28;;;3.14;74.37
85256;BME280;75756;52.380;4.876;2024-01-15T10:09:16;100250.59;;;3.44;73.34
85256;BME280;75756;52.380;4.876;2024-01-15T10:11:43;100254.78;;;3.01;75.42
85256;BME280;75756;52.380;4.876;2024-01-15T10:14:10;100270.97;;;2.72;76.60
85256;BME280;75756;52.380;4.876;2024-01-15T10:16:40;100267.22;;;2.56;78.27
85256;BME280;75756;52.380;4.876;2024-01-15T10:19:09;100269.19;;;2.63;77.55
85256;BME280;75756;52.380;4.876;2024-01-15T10:21:39;100281.28;;;2.77;77.25
85256;BME280;75756;52.380;4.876;2024-01-15T10:24:08;100265.75;;;2.80;76.59
85256;BME280;75756;52.380;4.876;2024-01-15T10:26:35;100263.69;;;3.02;75.21
85256;BME280;75756;52.380;4.876;2024-01-15T10:29:19;100298.34;;;3.23;73.69
85256;BME280;75756;52.380;4.876;2024-01-15T10:31:48;100323.72;;;3.28;75.31
85256;BME280;75756;52.380;4.876;2024-01-15T10:34:41;100279.53;;;2.86;78.69
85256;BME280;75756;52.380;4.876;2024-01-15T10:37:56;100285.59;;;2.51;80.29
85256;BME280;75756;52.380;4.876;2024-01-15T10:44:40;100291.38;;;2.36;80.63
85256;BME280;75756;52.380;4.876;2024-01-15T10:47:09;100293.75;;;2.49;79.90
85256;BME280;75756;52.380;4.876;2024-01-15T10:53:06;100292.09;;;2.29;80.83
85256;BME280;75756;52.380;4.876;2024-01-15T10:55:55;100288.00;;;2.25;81.32
85256;BME280;75756;52.380;4.876;2024-01-15T10:58:54;100307.03;;;2.31;80.77
85256;BME280;75756;52.380;4.876;2024-01-15T11:01:33;100296.59;;;1.99;82.71
85256;BME280;75756;52.380;4.876;2024-01-15T11:04:07;100293.19;;;1.59;84.56
85256;BME280;75756;52.380;4.876;2024-01-15T11:06:50;100300.81;;;1.73;83.51
85256;BME280;75756;52.380;4.876;2024-01-15T11:09:31;100294.75;;;1.71;82.25
85256;BME280;75756;52.380;4.876;2024-01-15T11:12:20;100290.44;;;1.39;85.20
85256;BME280;75756;52.380;4.876;2024-01-15T11:15:19;100298.59;;;1.28;84.52
85256;BME280;75756;52.380;4.876;2024-01-15T11:18:01;100295.66;;;1.41;83.69
85256;BME280;75756;52.380;4.876;2024-01-15T11:20:29;100296.06;;;1.36;83.17
85256;BME280;75756;52.380;4.876;2024-01-15T11:25:45;100287.81;;;1.59;81.73
85256;BME280;75756;52.380;4.876;2024-01-15T11:28:50;100306.28;;;1.62;82.52
85256;BME280;75756;52.380;4.876;2024-01-15T11:31:17;100300.53;;;1.76;83.08
85256;BME280;75756;52.380;4.876;2024-01-15T11:41:29;100287.97;;;2.44;80.30
85256;BME280;75756;52.380;4.876;2024-01-15T11:44:29;100296.25;;;2.79;80.03
85256;BME280;75756;52.380;4.876;2024-01-15T11:50:54;100305.28;;;3.43;72.03
85256;BME280;75756;52.380;4.876;2024-01-15T11:53:53;100309.16;;;3.58;67.78
85256;BME280;75756;52.380;4.876;2024-01-15T12:00:07;100309.03;;;3.60;68.14
85256;BME280;75756;52.380;4.876;2024-01-15T12:02:35;100310.56;;;3.62;69.77
85256;BME280;75756;52.380;4.876;2024-01-15T12:05:02;100338.31;;;3.80;68.38
85256;BME280;75756;52.380;4.876;2024-01-15T12:07:51;100337.72;;;3.32;72.89
85256;BME280;75756;52.380;4.876;2024-01-15T12:10:21;100347.97;;;3.09;75.08
85256;BME280;75756;52.380;4.876;2024-01-15T12:16:31;100338.91;;;2.25;75.18
85256;BME280;75756;52.380;4.876;2024-01-15T12:19:07;100342.28;;;1.98;77.96
85256;BME280;75756;52.380;4.876;2024-01-15T12:21:39;100345.22;;;1.95;79.67
85256;BME280;75756;52.380;4.876;2024-01-15T12:24:11;100343.25;;;1.97;81.17
85256;BME280;75756;52.380;4.876;2024-01-15T12:26:40;100343.84;;;2.00;82.80
85256;BME280;75756;52.380;4.876;2024-01-15T12:29:11;100332.97;;;2.02;81.80
85256;BME280;75756;52.380;4.876;2024-01-15T12:31:38;100337.34;;;2.03;80.99
85256;BME280;75756;52.380;4.876;2024-01-15T12:34:06;100348.22;;;2.21;81.23
85256;BME280;75756;52.380;4.876;2024-01-15T12:36:42;100343.72;;;2.50;78.75
85256;BME280;75756;52.380;4.876;2024-01-15T12:42:04;100348.63;;;2.64;78.87
85256;BME280;75756;52.380;4.876;2024-01-15T12:44:39;100352.25;;;2.82;74.57
85256;BME280;75756;52.380;4.876;2024-01-15T12:47:08;100339.47;;;2.67;75.88
85256;BME280;75756;52.380;4.876;2024-01-15T12:49:42;100345.69;;;2.29;76.95
85256;BME280;75756;52.380;4.876;2024-01-15T12:52:21;100341.16;;;2.39;76.80
85256;BME280;75756;52.380;4.876;2024-01-15T12:54:51;100356.69;;;2.35;74.60
85256;BME280;75756;52.380;4.876;2024-01-15T12:57:18;100338.47;;;2.39;76.05
85256;BME280;75756;52.380;4.876;2024-01-15T12:59:47;100342.56;;;2.53;73.53
85256;BME280;75756;52.380;4.876;2024-01-15T13:02:17;100355.81;;;2.73;72.52
85256;BME280;75756;52.380;4.876;2024-01-15T13:04:48;100375.66;;;3.00;70.10
85256;BME280;75756;52.380;4.876;2024-01-15T13:07:15;100387.97;;;2.93;69.65
85256;BME280;75756;52.380;4.876;2024-01-15T13:09:44;100369.44;;;3.09;72.57
85256;BME280;75756;52.380;4.876;2024-01-15T13:12:17;100362.59;;;2.58;75.76
85256;BME280;75756;52.380;4.876;2024-01-15T13:14:43;100365.16;;;2.50;76.77
85256;BME280;75756;52.380;4.876;2024-01-15T13:17:11;100366.41;;;2.65;76.42
85256;BME280;75756;52.380;4.876;2024-01-15T13:22:31;100366.13;;;2.39;78.43
85256;BME280;75756;52.380;4.876;2024-01-15T13:25:01;100360.63;;;2.41;78.53
85256;BME280;75756;52.380;4.876;2024-01-15T13:27:29;100362.31;;;2.13;79.82
85256;BME280;75756;52.380;4.876;2024-01-15T13:29:56;100365.69;;;2.25;79.38
85256;BME280;75756;52.380;4.876;2024-01-15T13:32:28;100359.66;;;2.42;78.21
85256;BME280;75756;52.380;4.876;2024-01-15T13:35:03;100362.88;;;2.55;76.36
85256;BME280;75756;52.380;4.876;2024-01-15T13:37:35;100359.75;;;2.69;76.86
85256;BME280;75756;52.380;4.876;2024-01-15T13:40:09;100361.84;;;2.95;74.30
85256;BME280;75756;52.380;4.876;2024-01-15T13:42:46;100363.91;;;3.20;70.71
85256;BME280;75756;52.380;4.876;2024-01-15T13:45:15;100363.00;;;3.29;69.57
85256;BME280;75756;52.380;4.876;2024-01-15T13:47:54;100365.00;;;3.64;66.26
85256;BME280;75756;52.380;4.876;2024-01-15T13:50:21;100369.50;;;3.64;63.81
85256;BME280;75756;52.380;4.876;2024-01-15T13:52:48;100365.47;;;4.22;61.03
85256;BME280;75756;52.380;4.876;2024-01-15T13:55:26;100375.66;;;3.46;59.64
85256;BME280;75756;52.380;4.876;2024-01-15T13:58:16;100371.25;;;3.82;59.43
85256;BME280;75756;52.380;4.876;2024-01-15T14:01:08;100373.19;;;3.63;61.07
85256;BME280;75756;52.380;4.876;2024-01-15T14:03:55;100387.81;;;3.50;61.02
85256;BME280;75756;52.380;4.876;2024-01-15T14:06:24;100384.75;;;3.36;62.71
85256;BME280;75756;52.380;4.876;2024-01-15T14:09:00;100382.78;;;3.38;65.62
85256;BME280;75756;52.380;4.876;2024-01-15T14:11:40;100395.91;;;3.31;65.11
85256;BME280;75756;52.380;4.876;2024-01-15T14:14:06;100400.13;;;3.43;66.48
85256;BME280;75756;52.380;4.876;2024-01-15T14:16:35;100398.34;;;3.62;65.63
85256;BME280;75756;52.380;4.876;2024-01-15T14:19:18;100411.22;;;3.58;66.39
85256;BME280;75756;52.380;4.876;2024-01-15T14:21:47;100406.22;;;3.73;65.91
85256;BME280;75756;52.380;4.876;2024-01-15T14:24:19;100413.41;;;3.82;66.24
85256;BME280;75756;52.380;4.876;2024-01-15T14:26:46;100415.38;;;3.52;67.35
85256;BME280;75756;52.380;4.876;2024-01-15T14:29:12;100419.91;;;3.42;66.88
85256;BME280;75756;52.380;4.876;2024-01-15T14:31:44;100418.91;;;3.53;65.29
85256;BME280;75756;52.380;4.876;2024-01-15T14:34:22;100414.09;;;3.47;67.37
85256;BME280;75756;52.380;4.876;2024-01-15T14:37:01;100430.72;;;3.60;67.21
85256;BME280;75756;52.380;4.876;2024-01-15T14:39:46;100451.66;;;3.57;64.12
85256;BME280;75756;52.380;4.876;2024-01-15T14:42:16;100425.25;;;3.52;66.24
85256;BME280;75756;52.380;4.876;2024-01-15T14:44:52;100420.31;;;3.47;65.31
85256;BME280;75756;52.380;4.876;2024-01-15T14:47:21;100448.28;;;3.54;63.67
85256;BME280;75756;52.380;4.876;2024-01-15T14:49:50;100446.13;;;3.58;63.04
85256;BME280;75756;52.380;4.876;2024-01-15T14:52:21;100448.88;;;3.48;61.98
85256;BME280;75756;52.380;4.876;2024-01-15T14:55:06;100449.13;;;3.55;62.21
85256;BME280;75756;52.380;4.876;2024-01-15T14:57:38;100448.63;;;3.79;60.14
85256;BME280;75756;52.380;4.876;2024-01-15T15:00:07;100441.75;;;3.67;62.09
85256;BME280;75756;52.380;4.876;2024-01-15T15:02:42;100456.38;;;3.82;61.46
85256;BME280;75756;52.380;4.876;2024-01-15T15:05:14;100463.94;;;3.69;62.73
85256;BME280;75756;52.380;4.876;2024-01-15T15:07:43;100471.84;;;3.61;65.34
85256;BME280;75756;52.380;4.876;2024-01-15T15:10:17;100464.44;;;3.35;68.31
85256;BME280;75756;52.380;4.876;2024-01-15T15:12:49;100486.47;;;3.29;68.98
85256;BME280;75756;52.380;4.876;2024-01-15T15:15:21;100471.69;;;3.25;66.83
85256;BME280;75756;52.380;4.876;2024-01-15T15:18:32;100467.59;;;3.02;64.36
85256;BME280;75756;52.380;4.876;2024-01-15T15:21:12;100473.25;;;2.99;63.62
